Time;durP1;ratioP1;P1;durP2;ratioP2;P2;SDS_P1;SDS_P2;PMS_P1;PMS_P2;Temp;Humidity;BMP_temperature;BMP_pressure;BME280_temperature;BME280_humidity;BME280_pressure;Samples;Min_cycle;Max_cycle;Signal;HPM_P1;HPM_P2
2021/05/30 00:01:04;;;;;;;3.72;1.90;;;9.90;99.90;;;-146.41;100.00;57768.22;5130586;27;20100;-66
2021/05/30 00:03:31;;;;;;;3.83;1.85;;;10.00;99.90;;;-146.41;100.00;57768.22;5116441;27;20031;-66
2021/05/30 00:05:59;;;;;;;4.65;2.35;;;10.00;99.90;;;-146.41;100.00;57768.22;5120367;27;20047;-66
2021/05/30 00:08:26;;;;;;;4.47;2.08;;;9.80;99.90;;;-146.41;100.00;57768.22;5113019;27;20398;-66
2021/05/30 00:10:53;;;;;;;5.45;1.90;;;9.80;99.90;;;-146.41;100.00;57768.22;5130501;27;20039;-66
2021/05/30 00:13:20;;;;;;;2.90;1.50;;;9.70;99.90;;;-146.41;100.00;57768.22;5131075;27;20536;-66
2021/05/30 00:15:48;;;;;;;3.13;1.60;;;9.80;99.90;;;-146.41;100.00;57768.22;5126284;27;20131;-66
2021/05/30 00:18:15;;;;;;;3.63;2.10;;;9.90;99.90;;;-146.41;100.00;57768.22;5126283;27;20457;-66
2021/05/30 00:20:42;;;;;;;4.80;1.90;;;10.00;99.90;;;-146.41;100.00;57768.22;5125558;27;20043;-66
2021/05/30 00:23:09;;;;;;;3.58;1.88;;;9.80;99.90;;;-146.41;100.00;57768.22;5126172;27;20096;-66
2021/05/30 00:25:36;;;;;;;4.38;1.90;;;9.80;99.90;;;-146.41;100.00;57768.22;5129154;27;20089;-68
2021/05/30 00:28:03;;;;;;;3.80;2.15;;;9.70;99.90;;;-146.41;100.00;57768.22;5111896;27;20087;-66
2021/05/30 00:30:30;;;;;;;4.05;1.70;;;9.70;99.90;;;-146.41;100.00;57768.22;5124972;27;20504;-66
2021/05/30 00:32:57;;;;;;;6.72;2.42;;;9.80;99.90;;;-146.41;100.00;57768.22;5130721;27;20101;-66
2021/05/30 00:35:24;;;;;;;5.75;2.60;;;9.90;99.90;;;-146.41;100.00;57768.22;5130083;27;20035;-66
2021/05/30 00:37:51;;;;;;;4.15;2.13;;;9.90;99.90;;;-146.41;100.00;57768.22;5131438;27;20047;-66
2021/05/30 00:40:20;;;;;;;4.22;2.28;;;9.80;99.90;;;-146.41;100.00;57768.22;5129737;27;20039;-66
2021/05/30 00:42:48;;;;;;;5.55;2.05;;;9.70;99.90;;;-146.41;100.00;57768.22;5107514;27;20043;-66
2021/05/30 00:45:16;;;;;;;4.35;2.13;;;9.60;99.90;;;-146.41;100.00;57768.22;5108705;27;20516;-66
2021/05/30 00:47:43;;;;;;;6.45;2.33;;;9.40;99.90;;;-146.41;100.00;57768.22;5130623;27;20047;-66
2021/05/30 00:50:11;;;;;;;10.27;2.60;;;9.10;99.90;;;-146.41;100.00;57768.22;5130903;27;20047;-66
2021/05/30 00:52:42;;;;;;;4.07;2.40;;;9.00;99.90;;;-146.41;100.00;57768.22;5107210;27;20039;-66
2021/05/30 00:55:12;;;;;;;4.07;2.40;;;8.90;99.90;;;-146.41;100.00;57768.22;5108962;27;20496;-66
2021/05/30 00:57:39;;;;;;;4.18;2.30;;;8.90;99.90;;;-146.41;100.00;57768.22;5115290;27;20035;-66
2021/05/30 01:00:10;;;;;;;3.97;2.42;;;8.90;99.90;;;-146.41;100.00;57768.22;5099880;27;20485;-66
2021/05/30 01:02:37;;;;;;;3.58;2.33;;;9.00;99.90;;;-146.41;100.00;57768.22;5116628;27;20071;-66
2021/05/30 01:05:07;;;;;;;4.47;2.30;;;9.10;99.90;;;-146.41;100.00;57768.22;5119032;27;20039;-66
2021/05/30 01:07:40;;;;;;;5.90;2.90;;;9.20;99.90;;;-146.41;100.00;57768.22;5117261;27;20043;-66
2021/05/30 01:10:35;;;;;;;6.22;3.08;;;9.30;99.90;;;-146.41;100.00;57768.22;5117721;27;20125;-66
2021/05/30 01:13:06;;;;;;;4.97;2.92;;;9.20;99.90;;;-146.41;100.00;57768.22;5102987;27;20059;-66
2021/05/30 01:15:33;;;;;;;5.72;2.92;;;9.00;99.90;;;-146.41;100.00;57768.22;5086747;27;20035;-66
2021/05/30 01:18:02;;;;;;;5.45;2.88;;;8.90;99.90;;;-146.41;100.00;57768.22;5097942;27;20104;-66
2021/05/30 01:20:29;;;;;;;4.80;3.05;;;8.80;99.90;;;-146.41;100.00;57768.22;5101319;27;20038;-66
2021/05/30 01:22:56;;;;;;;5.85;3.83;;;8.80;99.90;;;-146.41;100.00;57768.22;5116797;27;20039;-66
2021/05/30 01:25:26;;;;;;;7.38;3.25;;;8.80;99.90;;;-146.41;100.00;57768.22;5116361;27;20047;-66
2021/05/30 01:27:53;;;;;;;6.90;3.50;;;8.80;99.90;;;-146.41;100.00;57768.22;5120426;27;20047;-66
2021/05/30 01:30:22;;;;;;;7.55;3.88;;;8.80;99.90;;;-146.41;100.00;57768.22;5117779;27;20192;-66
2021/05/30 01:32:50;;;;;;;7.65;4.38;;;8.60;99.90;;;-146.41;100.00;57768.22;5122066;27;20047;-66
2021/05/30 01:35:19;;;;;;;6.38;3.80;;;8.60;99.90;;;-146.41;100.00;57768.22;5111253;27;20071;-66
2021/05/30 01:37:48;;;;;;;6.03;3.85;;;8.60;99.90;;;-146.41;100.00;57768.22;5114616;27;20055;-66
2021/05/30 01:40:17;;;;;;;8.73;4.13;;;8.60;99.90;;;-146.41;100.00;57768.22;5128578;27;20116;-66
2021/05/30 01:42:46;;;;;;;7.68;4.38;;;8.60;99.90;;;-146.41;100.00;57768.22;5103834;27;20065;-66
2021/05/30 01:45:14;;;;;;;9.05;4.95;;;8.70;99.90;;;-146.41;100.00;57768.22;5110337;27;20067;-66
2021/05/30 01:47:43;;;;;;;9.27;4.47;;;8.80;99.90;;;-146.41;100.00;57768.22;5103731;28;20116;-66
2021/05/30 01:50:15;;;;;;;6.97;4.22;;;8.80;99.90;;;-146.41;100.00;57768.22;5102506;28;20070;-66
2021/05/30 01:52:43;;;;;;;7.72;4.97;;;8.80;99.90;;;-146.41;100.00;57768.22;5118651;27;20035;-66
2021/05/30 01:55:20;;;;;;;9.90;6.20;;;8.90;99.90;;;-146.41;100.00;57768.22;5100612;27;20039;-66
2021/05/30 01:57:50;;;;;;;9.32;5.57;;;8.90;99.90;;;-146.41;100.00;57768.22;5076434;28;20143;-66
2021/05/30 02:00:19;;;;;;;11.35;6.38;;;8.90;99.90;;;-146.41;100.00;57768.22;5128021;28;20047;-66
2021/05/30 02:02:53;;;;;;;8.65;6.15;;;9.00;99.90;;;-146.41;100.00;57768.22;5128914;28;20108;-66
2021/05/30 02:05:22;;;;;;;11.10;6.93;;;9.00;99.90;;;-146.41;100.00;57768.22;5128254;28;20047;-66
2021/05/30 02:07:50;;;;;;;8.93;5.88;;;8.90;99.90;;;-146.41;100.00;57768.22;5106621;28;20028;-66
2021/05/30 02:10:21;;;;;;;10.05;7.00;;;8.90;99.90;;;-146.41;100.00;57768.22;5110394;28;20043;-66
2021/05/30 02:12:53;;;;;;;9.65;6.75;;;8.80;99.90;;;-146.41;100.00;57768.22;5111268;28;20055;-66
2021/05/30 02:15:22;;;;;;;10.82;6.63;;;8.90;99.90;;;-146.41;100.00;57768.22;5129830;27;20047;-66
2021/05/30 02:17:49;;;;;;;9.88;6.18;;;8.90;99.90;;;-146.41;100.00;57768.22;5132625;27;20104;-66
2021/05/30 02:20:23;;;;;;;11.77;6.40;;;8.90;99.90;;;-146.41;100.00;57768.22;5132526;27;20134;-66
2021/05/30 02:22:50;;;;;;;;;;;8.80;99.90;;;-146.41;100.00;57768.22;5114218;27;20059;-66
2021/05/30 02:25:17;;;;;;;9.98;6.00;;;8.80;99.90;;;-146.41;100.00;57768.22;5132875;27;20333;-66
2021/05/30 02:27:44;;;;;;;10.90;7.35;;;8.80;99.90;;;-146.41;100.00;57768.22;5132321;27;20365;-66
2021/05/30 02:30:12;;;;;;;12.43;7.47;;;8.70;99.90;;;-146.41;100.00;57768.22;5133232;27;20421;-66
2021/05/30 02:32:39;;;;;;;11.90;6.68;;;8.70;99.90;;;-146.41;100.00;57768.22;5131470;27;20084;-66
2021/05/30 02:35:07;;;;;;;12.93;7.57;;;8.70;99.90;;;-146.41;100.00;57768.22;5125066;27;20092;-66
2021/05/30 02:37:34;;;;;;;12.45;8.02;;;8.60;99.90;;;-146.41;100.00;57768.22;5123871;27;20031;-66
2021/05/30 02:40:02;;;;;;;11.05;6.78;;;8.60;99.90;;;-146.41;100.00;57768.22;5132507;27;20558;-66
2021/05/30 02:42:29;;;;;;;11.48;7.10;;;8.60;99.90;;;-146.41;100.00;57768.22;5103263;27;20084;-66
2021/05/30 02:44:56;;;;;;;12.68;7.43;;;8.50;99.90;;;-146.41;100.00;57768.22;5133459;27;20064;-66
2021/05/30 02:47:23;;;;;;;12.23;7.88;;;8.50;99.90;;;-146.41;100.00;57768.22;5130484;27;20059;-66
2021/05/30 02:49:51;;;;;;;11.23;7.82;;;8.50;99.90;;;-146.41;100.00;57768.22;5133060;27;20479;-66
2021/05/30 02:52:18;;;;;;;11.27;7.30;;;8.40;99.90;;;-146.41;100.00;57768.22;5129690;27;20051;-66
2021/05/30 02:54:45;;;;;;;11.45;7.70;;;8.50;99.90;;;-146.41;100.00;57768.22;5114065;27;20108;-66
2021/05/30 02:57:12;;;;;;;13.48;7.78;;;8.40;99.90;;;-146.41;100.00;57768.22;5131745;27;20179;-66
2021/05/30 02:59:39;;;;;;;17.20;8.15;;;8.40;99.90;;;-146.41;100.00;57768.22;5097362;27;20445;-66
2021/05/30 03:02:06;;;;;;;12.27;8.23;;;8.40;99.90;;;-146.41;100.00;57768.22;5103752;28;20120;-66
2021/05/30 03:04:33;;;;;;;12.57;7.30;;;8.40;99.90;;;-146.41;100.00;57768.22;5127824;27;20445;-66
2021/05/30 03:07:00;;;;;;;12.15;8.05;;;8.30;99.90;;;-146.41;100.00;57768.22;5120966;27;20442;-66
2021/05/30 03:09:27;;;;;;;10.45;7.50;;;8.30;99.90;;;-146.41;100.00;57768.22;5133408;27;20043;-67
2021/05/30 03:11:55;;;;;;;11.63;7.65;;;8.20;99.90;;;-146.41;100.00;57768.22;5129593;27;20043;-66
2021/05/30 03:14:22;;;;;;;12.75;8.07;;;8.20;99.90;;;-146.41;100.00;57768.22;5114653;27;20040;-66
2021/05/30 03:16:49;;;;;;;11.82;7.43;;;8.20;99.90;;;-146.41;100.00;57768.22;5126966;27;20476;-66
2021/05/30 03:19:16;;;;;;;12.70;7.93;;;8.20;99.90;;;-146.41;100.00;57768.22;5132423;27;20054;-67
2021/05/30 03:21:44;;;;;;;11.98;7.35;;;8.10;99.90;;;-146.41;100.00;57768.22;5111167;27;20484;-66
2021/05/30 03:24:11;;;;;;;13.32;7.80;;;8.00;99.90;;;-146.41;100.00;57768.22;5126363;27;20403;-66
2021/05/30 03:26:38;;;;;;;15.57;8.35;;;8.00;99.90;;;-146.41;100.00;57768.22;5124917;27;20534;-66
2021/05/30 03:29:05;;;;;;;12.68;8.25;;;8.00;99.90;;;-146.41;100.00;57768.22;5123945;27;20145;-66
2021/05/30 03:31:32;;;;;;;14.40;8.23;;;7.90;99.90;;;-146.41;100.00;57768.22;5130765;27;20036;-66
2021/05/30 03:33:59;;;;;;;14.10;7.93;;;7.70;99.90;;;-146.41;100.00;57768.22;5128069;27;20172;-67
2021/05/30 03:36:28;;;;;;;12.55;8.13;;;7.60;99.90;;;-146.41;100.00;57768.22;5112178;27;20039;-66
2021/05/30 03:39:03;;;;;;;12.45;7.78;;;7.70;99.90;;;-146.41;100.00;57768.22;5131847;27;20039;-66
2021/05/30 03:41:38;;;;;;;12.80;8.45;;;7.70;99.90;;;-146.41;100.00;57768.22;5120310;27;20566;-66
2021/05/30 03:44:07;;;;;;;13.77;7.93;;;7.70;99.90;;;-146.41;100.00;57768.22;5125597;27;20044;-66
2021/05/30 03:46:37;;;;;;;18.33;9.98;;;7.70;99.90;;;-146.41;100.00;57768.22;5125219;27;20043;-66
2021/05/30 03:49:07;;;;;;;14.85;9.20;;;7.70;99.90;;;-146.41;100.00;57768.22;5131654;27;20043;-66
2021/05/30 03:51:34;;;;;;;15.40;9.45;;;7.80;99.90;;;-146.41;100.00;57768.22;5130871;27;20046;-66
2021/05/30 03:54:01;;;;;;;18.05;10.13;;;7.80;99.90;;;-146.41;100.00;57768.22;5132124;27;20043;-66
2021/05/30 03:56:28;;;;;;;16.48;9.18;;;7.90;99.90;;;-146.41;100.00;57768.22;5129945;27;20111;-67
2021/05/30 03:58:57;;;;;;;13.57;9.93;;;7.80;99.90;;;-146.41;100.00;57768.22;5106590;27;20118;-66
2021/05/30 04:01:24;;;;;;;15.82;9.57;;;7.90;99.90;;;-146.41;100.00;57768.22;5109069;27;20039;-66
2021/05/30 04:03:51;;;;;;;16.20;10.43;;;8.00;99.90;;;-146.41;100.00;57768.22;5096713;27;20035;-66
2021/05/30 04:06:18;;;;;;;15.63;9.43;;;8.00;99.90;;;-146.41;100.00;57768.22;5130553;27;20032;-66
2021/05/30 04:08:47;;;;;;;17.00;10.27;;;8.00;99.90;;;-146.41;100.00;57768.22;5130450;27;20039;-66
2021/05/30 04:11:15;;;;;;;19.40;10.00;;;8.10;99.90;;;-146.41;100.00;57768.22;5130167;27;20035;-66
2021/05/30 04:13:42;;;;;;;18.52;10.02;;;8.10;99.90;;;-146.41;100.00;57768.22;5131252;27;20039;-66
2021/05/30 04:16:10;;;;;;;17.63;9.85;;;8.20;99.90;;;-146.41;100.00;57768.22;5130859;27;20047;-66
2021/05/30 04:18:37;;;;;;;16.38;10.10;;;8.20;99.90;;;-146.41;100.00;57768.22;5111361;27;20039;-66
2021/05/30 04:21:05;;;;;;;14.82;9.73;;;8.30;99.90;;;-146.41;100.00;57768.22;5131392;27;20043;-66
2021/05/30 04:23:32;;;;;;;17.17;11.10;;;8.40;99.90;;;-146.41;100.00;57768.22;5123320;27;20039;-67
2021/05/30 04:25:59;;;;;;;18.20;10.63;;;8.40;99.90;;;-146.41;100.00;57768.22;5101493;27;20521;-66
2021/05/30 04:28:26;;;;;;;16.38;10.20;;;8.50;99.90;;;-146.41;100.00;57768.22;5100120;27;20035;-66
2021/05/30 04:30:53;;;;;;;13.80;9.82;;;8.60;99.90;;;-146.41;100.00;57768.22;5130988;27;20034;-66
2021/05/30 04:33:21;;;;;;;16.52;10.05;;;8.70;99.90;;;-146.41;100.00;57768.22;5107883;27;20054;-66
2021/05/30 04:35:49;;;;;;;15.38;10.20;;;8.70;99.90;;;-146.41;100.00;57768.22;5120331;27;20042;-66
2021/05/30 04:38:18;;;;;;;18.55;11.07;;;8.80;99.90;;;-146.41;100.00;57768.22;5128359;27;20104;-66
2021/05/30 04:40:47;;;;;;;16.05;9.93;;;8.80;99.90;;;-146.41;100.00;57768.22;5104513;27;20062;-66
2021/05/30 04:43:15;;;;;;;14.82;10.20;;;8.90;99.90;;;-146.41;100.00;57768.22;5109370;27;20035;-66
2021/05/30 04:45:42;;;;;;;17.08;11.45;;;9.10;99.90;;;-146.41;100.00;57768.22;5112066;27;20103;-66
2021/05/30 04:48:11;;;;;;;17.65;11.18;;;9.10;99.90;;;-146.41;100.00;57768.22;5112582;27;20113;-66
2021/05/30 04:50:38;;;;;;;18.10;12.05;;;9.20;99.90;;;-146.41;100.00;57768.22;5110996;27;20039;-66
2021/05/30 04:53:05;;;;;;;17.63;11.15;;;9.20;99.90;;;-146.41;100.00;57768.22;5124579;27;20496;-66
2021/05/30 04:55:32;;;;;;;16.65;10.82;;;9.30;99.90;;;-146.41;100.00;57768.22;5129042;27;20042;-66
2021/05/30 04:58:00;;;;;;;17.00;11.27;;;9.40;99.90;;;-146.41;100.00;57768.22;5131143;27;20151;-66
2021/05/30 05:00:27;;;;;;;20.33;12.25;;;9.40;99.90;;;-146.41;100.00;57768.22;5105228;27;20043;-66
2021/05/30 05:02:54;;;;;;;17.00;11.23;;;9.40;99.90;;;-146.41;100.00;57768.22;5130249;27;20496;-66
2021/05/30 05:05:27;;;;;;;19.92;11.25;;;9.50;99.90;;;-146.41;100.00;57768.22;5125676;27;20493;-66
2021/05/30 05:07:55;;;;;;;16.65;11.20;;;9.50;99.90;;;-146.41;100.00;57768.22;5130113;27;20043;-66
2021/05/30 05:10:22;;;;;;;20.67;11.57;;;9.60;99.90;;;-146.41;100.00;57768.22;5128796;27;20543;-66
2021/05/30 05:12:49;;;;;;;18.63;11.80;;;9.70;99.90;;;-146.41;100.00;57768.22;5130287;27;20484;-66
2021/05/30 05:15:16;;;;;;;17.23;10.23;;;9.70;99.90;;;-146.41;100.00;57768.22;5129920;27;20113;-66
2021/05/30 05:17:43;;;;;;;20.23;12.25;;;9.70;99.90;;;-146.41;100.00;57768.22;5119145;27;20061;-67
2021/05/30 05:20:11;;;;;;;19.15;12.20;;;9.70;99.90;;;-146.41;100.00;57768.22;5123372;27;20059;-66
2021/05/30 05:22:39;;;;;;;20.05;11.77;;;9.90;99.90;;;-146.41;100.00;57768.22;5128257;27;20043;-66
2021/05/30 05:25:07;;;;;;;20.48;11.20;;;9.90;99.90;;;-146.41;100.00;57768.22;5129900;27;20051;-66
2021/05/30 05:27:34;;;;;;;20.80;11.88;;;10.00;99.90;;;-146.41;100.00;57768.22;5129432;27;20053;-66
2021/05/30 05:30:01;;;;;;;18.95;11.63;;;10.00;99.90;;;-146.41;100.00;57768.22;5130525;27;20043;-66
2021/05/30 05:32:28;;;;;;;17.70;11.55;;;10.10;99.90;;;-146.41;100.00;57768.22;5109544;27;20039;-66
2021/05/30 05:34:54;;;;;;;17.42;9.88;;;10.30;99.90;;;-146.41;100.00;57768.22;5124203;27;20076;-66
2021/05/30 05:37:21;;;;;;;16.58;10.30;;;10.50;99.90;;;-146.41;100.00;57768.22;5117826;27;20100;-66
2021/05/30 05:39:48;;;;;;;16.02;10.18;;;10.60;99.90;;;-146.41;100.00;57768.22;5128968;27;20047;-67
2021/05/30 05:42:15;;;;;;;13.85;9.32;;;10.70;99.90;;;-146.41;100.00;57768.22;5108172;27;20063;-66
2021/05/30 05:44:42;;;;;;;17.95;8.93;;;10.90;99.90;;;-146.41;100.00;57768.22;5129785;27;20064;-66
2021/05/30 05:47:09;;;;;;;17.45;9.85;;;11.00;99.90;;;-146.41;100.00;57768.22;5125459;27;20035;-66
2021/05/30 05:49:37;;;;;;;15.20;9.70;;;11.00;99.90;;;-146.41;100.00;57768.22;5101706;27;20112;-66
2021/05/30 05:52:04;;;;;;;12.77;8.70;;;11.10;99.90;;;-146.41;100.00;57768.22;5128976;27;20043;-67
2021/05/30 05:54:50;;;;;;;12.15;7.80;;;11.20;99.90;;;-146.41;100.00;57768.22;5124255;27;20035;-66
2021/05/30 05:57:18;;;;;;;12.20;8.20;;;11.20;99.90;;;-146.41;100.00;57768.22;5104810;28;20043;-66
2021/05/30 05:59:45;;;;;;;10.27;7.60;;;11.30;99.90;;;-146.41;100.00;57768.22;5129865;27;20179;-66
2021/05/30 06:02:12;;;;;;;10.85;8.60;;;11.30;99.90;;;-146.41;100.00;57768.22;5128412;28;20450;-66
2021/05/30 06:04:43;;;;;;;12.15;7.90;;;11.40;99.90;;;-146.41;100.00;57768.22;5129923;28;20051;-66
2021/05/30 06:07:10;;;;;;;13.32;7.57;;;11.40;99.90;;;-146.41;100.00;57768.22;5120513;28;20062;-67
2021/05/30 06:09:37;;;;;;;12.13;7.63;;;11.50;99.90;;;-146.41;100.00;57768.22;5108778;28;20100;-66
2021/05/30 06:12:05;;;;;;;13.40;7.88;;;11.60;99.90;;;-146.41;100.00;57768.22;5124761;28;20039;-67
2021/05/30 06:14:32;;;;;;;12.40;7.65;;;11.70;99.90;;;-146.41;100.00;57768.22;5126078;28;20587;-67
2021/05/30 06:16:59;;;;;;;11.02;7.35;;;11.70;99.90;;;-146.41;100.00;57768.22;5091462;28;20511;-66
2021/05/30 06:19:28;;;;;;;13.95;7.55;;;11.80;99.90;;;-146.41;100.00;57768.22;5128867;28;20214;-66
2021/05/30 06:22:01;;;;;;;11.25;7.93;;;11.90;99.90;;;-146.41;100.00;57768.22;5129127;28;20065;-66
2021/05/30 06:24:28;;;;;;;11.75;7.70;;;11.90;99.90;;;-146.41;100.00;57768.22;5128898;28;20138;-66
2021/05/30 06:26:56;;;;;;;13.05;8.10;;;11.90;99.90;;;-146.41;100.00;57768.22;5127571;28;20108;-66
2021/05/30 06:29:24;;;;;;;12.75;7.40;;;12.00;99.90;;;-146.41;100.00;57768.22;5093040;28;20043;-67
2021/05/30 06:31:51;;;;;;;10.93;6.75;;;12.20;99.90;;;-146.41;100.00;57768.22;5126385;28;20100;-66
2021/05/30 06:34:23;;;;;;;11.10;7.17;;;12.40;99.90;;;-146.41;100.00;57768.22;5126836;28;20100;-66
2021/05/30 06:36:52;;;;;;;9.80;5.65;;;12.50;99.90;;;-146.41;100.00;57768.22;5105935;28;20480;-67
2021/05/30 06:39:21;;;;;;;10.25;6.28;;;12.70;99.90;;;-146.41;100.00;57768.22;5129518;28;20043;-66
2021/05/30 06:41:50;;;;;;;11.55;6.45;;;12.90;99.90;;;-146.41;100.00;57768.22;5094459;28;20500;-66
2021/05/30 06:44:18;;;;;;;8.32;5.57;;;13.00;99.90;;;-146.41;100.00;57768.22;5128897;28;20039;-66
2021/05/30 06:46:45;;;;;;;7.97;5.85;;;13.20;99.90;;;-146.41;100.00;57768.22;5108939;28;20043;-67
2021/05/30 06:49:13;;;;;;;11.00;6.03;;;13.20;99.90;;;-146.41;100.00;57768.22;5129400;28;20126;-66
2021/05/30 06:51:40;;;;;;;13.95;6.10;;;13.30;99.90;;;-146.41;100.00;57768.22;5110255;28;20091;-67
2021/05/30 06:54:09;;;;;;;10.50;6.70;;;13.40;99.90;;;-146.41;100.00;57768.22;5123558;28;20509;-67
2021/05/30 06:56:37;;;;;;;11.65;6.25;;;13.40;99.90;;;-146.41;100.00;57768.22;5109195;28;20596;-66
2021/05/30 06:59:04;;;;;;;8.40;5.53;;;13.70;99.90;;;-146.41;100.00;57768.22;5110412;28;20120;-66
2021/05/30 07:01:31;;;;;;;7.88;5.07;;;13.50;99.90;;;-146.41;100.00;57768.22;5108087;27;20039;-66
2021/05/30 07:03:59;;;;;;;6.88;4.63;;;13.90;99.90;;;-146.41;100.00;57768.22;5133227;27;20045;-66
2021/05/30 07:06:26;;;;;;;8.88;5.57;;;13.80;99.90;;;-146.41;100.00;57768.22;5131587;27;20039;-66
2021/05/30 07:08:53;;;;;;;9.00;5.43;;;14.00;99.90;;;-146.41;100.00;57768.22;5132269;27;20035;-67
2021/05/30 07:11:19;;;;;;;11.30;5.30;;;14.10;99.90;;;-146.41;100.00;57768.22;5131311;27;20183;-66
2021/05/30 07:13:47;;;;;;;9.10;5.45;;;14.20;99.90;;;-146.41;100.00;57768.22;5132629;27;20137;-66
2021/05/30 07:16:14;;;;;;;9.93;5.18;;;14.30;99.90;;;-146.41;100.00;57768.22;5132025;27;20119;-67
2021/05/30 07:18:41;;;;;;;9.05;5.32;;;14.30;99.90;;;-146.41;100.00;57768.22;5114807;27;20048;-67
2021/05/30 07:21:08;;;;;;;6.80;4.70;;;14.30;99.90;;;-146.41;100.00;57768.22;5132088;27;20484;-67
2021/05/30 07:23:36;;;;;;;7.75;4.55;;;14.40;99.90;;;-146.41;100.00;57768.22;5129888;27;20043;-66
2021/05/30 07:26:04;;;;;;;6.05;4.35;;;14.50;99.90;;;-146.41;100.00;57768.22;5121773;27;20138;-66
2021/05/30 07:28:31;;;;;;;9.15;4.50;;;14.60;99.90;;;-146.41;100.00;57768.22;5129644;27;20059;-67
2021/05/30 07:30:59;;;;;;;6.97;4.80;;;14.90;99.90;;;-146.41;100.00;57768.22;5113783;27;20042;-66
2021/05/30 07:33:28;;;;;;;6.03;4.35;;;15.00;99.90;;;-146.41;100.00;57768.22;5131978;27;20169;-67
2021/05/30 07:35:55;;;;;;;8.48;4.22;;;14.90;99.90;;;-146.41;100.00;57768.22;5128755;27;20088;-66
2021/05/30 07:38:22;;;;;;;7.03;3.97;;;15.10;99.90;;;-146.41;100.00;57768.22;5131062;27;20602;-66
2021/05/30 07:40:49;;;;;;;6.97;4.30;;;15.00;99.90;;;-146.41;100.00;57768.22;5131079;27;20561;-67
2021/05/30 07:43:17;;;;;;;5.90;3.67;;;15.20;99.90;;;-146.41;100.00;57768.22;5127988;27;20063;-67
2021/05/30 07:45:44;;;;;;;4.57;3.22;;;15.20;99.90;;;-146.41;100.00;57768.22;5112877;27;20117;-66
2021/05/30 07:48:11;;;;;;;6.95;3.67;;;15.40;99.90;;;-146.41;100.00;57768.22;5130561;27;20092;-67
2021/05/30 07:50:39;;;;;;;5.28;3.33;;;15.60;99.90;;;-146.41;100.00;57768.22;5130153;27;20084;-67
2021/05/30 07:53:06;;;;;;;5.32;3.50;;;15.90;99.90;;;-146.41;100.00;57768.22;5112547;27;20039;-67
2021/05/30 07:55:33;;;;;;;6.93;3.30;;;15.80;99.90;;;-146.41;100.00;57768.22;5124328;27;20038;-67
2021/05/30 07:58:01;;;;;;;4.70;3.22;;;15.80;99.90;;;-146.41;100.00;57768.22;5126364;27;20047;-67
2021/05/30 08:00:27;;;;;;;6.10;3.22;;;15.80;99.90;;;-146.41;100.00;57768.22;5111136;27;20100;-67
2021/05/30 08:02:55;;;;;;;5.75;3.50;;;16.40;99.90;;;-146.41;100.00;57768.22;5130599;27;20406;-67
2021/05/30 08:05:22;;;;;;;4.60;3.20;;;16.80;99.90;;;-146.41;100.00;57768.22;5129040;27;20035;-67
2021/05/30 08:07:50;;;;;;;4.20;2.72;;;16.80;99.90;;;-146.41;100.00;57768.22;5131697;27;20047;-67
2021/05/30 08:10:21;;;;;;;4.03;2.13;;;17.20;99.90;;;-146.41;100.00;57768.22;5129927;27;20039;-67
2021/05/30 08:12:50;;;;;;;5.82;2.67;;;17.70;99.90;;;-146.41;100.00;57768.22;5088701;27;20055;-65
2021/05/30 08:15:20;;;;;;;4.95;2.60;;;17.80;99.90;;;-146.41;100.00;57768.22;5130656;27;20092;-67
2021/05/30 08:17:47;;;;;;;5.80;2.40;;;17.40;99.90;;;-146.41;100.00;57768.22;5129278;27;20054;-65
2021/05/30 08:20:17;;;;;;;4.72;2.15;;;17.80;99.90;;;-146.41;100.00;57768.22;5112244;27;20116;-65
2021/05/30 08:22:44;;;;;;;4.15;2.00;;;18.20;99.90;;;-146.41;100.00;57768.22;5110845;27;20500;-65
2021/05/30 08:25:14;;;;;;;4.18;2.60;;;18.30;99.90;;;-146.41;100.00;57768.22;5129455;27;20038;-66
2021/05/30 08:27:41;;;;;;;5.00;2.30;;;18.20;99.90;;;-146.41;100.00;57768.22;5122080;27;20059;-65
2021/05/30 08:30:10;;;;;;;5.63;2.78;;;18.40;99.90;;;-146.41;100.00;57768.22;5107291;27;20031;-65
2021/05/30 08:32:38;;;;;;;3.35;2.00;;;18.60;99.90;;;-146.41;100.00;57768.22;5103726;28;20100;-65
2021/05/30 08:35:07;;;;;;;4.68;2.10;;;18.90;99.90;;;-146.41;100.00;57768.22;5107158;27;20446;-65
2021/05/30 08:37:35;;;;;;;2.67;1.73;;;19.10;99.90;;;-146.41;100.00;57768.22;5129747;27;20209;-65
2021/05/30 08:40:04;;;;;;;2.53;1.17;;;19.40;99.90;;;-146.41;100.00;57768.22;5109499;27;20035;-65
2021/05/30 08:42:31;;;;;;;1.75;1.00;;;19.80;97.20;;;-146.41;100.00;57768.22;5129306;27;20091;-65
2021/05/30 08:44:58;;;;;;;2.05;1.40;;;20.10;97.30;;;-146.41;100.00;57768.22;5110157;27;20115;-65
2021/05/30 08:47:25;;;;;;;3.47;1.27;;;20.30;98.70;;;-146.41;100.00;57768.22;5130527;27;20077;-65
2021/05/30 08:49:52;;;;;;;3.72;1.45;;;20.70;96.30;;;-146.41;100.00;57768.22;5129350;27;20459;-66
2021/05/30 08:52:19;;;;;;;2.00;1.13;;;20.90;95.70;;;-146.41;100.00;57768.22;5129951;27;20405;-66
2021/05/30 08:54:47;;;;;;;2.40;1.05;;;21.10;95.10;;;-146.41;100.00;57768.22;5128352;27;20480;-66
2021/05/30 08:57:14;;;;;;;1.35;0.82;;;21.20;94.00;;;-146.41;100.00;57768.22;5127866;27;20050;-66
2021/05/30 08:59:53;;;;;;;3.65;0.90;;;21.30;91.10;;;-146.41;100.00;57768.22;5129792;27;20564;-65
2021/05/30 09:02:21;;;;;;;2.65;1.02;;;21.10;90.10;;;-146.41;100.00;57768.22;5110739;27;20092;-65
2021/05/30 09:04:55;;;;;;;2.65;0.90;;;21.00;86.40;;;-146.41;100.00;57768.22;5110939;27;20039;-65
2021/05/30 09:07:47;;;;;;;4.13;0.90;;;22.00;89.00;;;-146.41;100.00;57768.22;5089675;27;20529;-65
2021/05/30 09:10:26;;;;;;;2.05;1.02;;;22.00;84.60;;;-146.41;100.00;57768.22;5110917;27;20047;-66
2021/05/30 09:13:17;;;;;;;2.15;1.05;;;22.00;82.30;;;-146.41;100.00;57768.22;5129567;27;20043;-66
2021/05/30 09:16:07;;;;;;;4.80;0.90;;;22.10;79.30;;;-146.41;100.00;57768.22;5128673;27;20330;-66
2021/05/30 09:18:39;;;;;;;2.33;0.90;;;22.40;82.40;;;-146.41;100.00;57768.22;5113878;27;20486;-66
2021/05/30 09:21:09;;;;;;;2.83;0.95;;;23.20;84.60;;;-146.41;100.00;57768.22;5129776;27;20056;-66
2021/05/30 09:23:39;;;;;;;2.70;1.13;;;23.80;86.00;;;-146.41;100.00;57768.22;5129100;27;20460;-66
2021/05/30 09:26:15;;;;;;;3.83;1.30;;;23.00;84.10;;;-146.41;100.00;57768.22;5118436;27;20077;-66
2021/05/30 09:29:09;;;;;;;3.28;1.55;;;22.60;84.70;;;-146.41;100.00;57768.22;5121812;27;20035;-65
2021/05/30 09:32:03;;;;;;;2.47;1.30;;;22.00;86.00;;;-146.41;100.00;57768.22;5111352;27;20055;-66
2021/05/30 09:34:35;;;;;;;4.30;1.60;;;20.90;86.60;;;-146.41;100.00;57768.22;5117148;27;20055;-65
2021/05/30 09:37:05;;;;;;;;;;;19.80;89.80;;;-146.41;100.00;57768.22;5126470;27;20051;-66
2021/05/30 09:39:38;;;;;;;6.57;2.10;;;20.20;90.50;;;-146.41;100.00;57768.22;5109201;27;19939;-66
2021/05/30 09:42:34;;;;;;;3.58;1.40;;;20.10;88.60;;;-146.41;100.00;57768.22;5127727;27;20044;-66
2021/05/30 09:45:11;;;;;;;4.53;1.73;;;20.00;90.00;;;-146.41;100.00;57768.22;5108380;27;20031;-66
2021/05/30 09:47:45;;;;;;;8.70;1.52;;;19.90;90.90;;;-146.41;100.00;57768.22;5121946;27;20111;-66
2021/05/30 09:50:18;;;;;;;3.60;1.60;;;19.70;91.70;;;-146.41;100.00;57768.22;5122203;27;20508;-66
2021/05/30 09:52:52;;;;;;;3.78;1.67;;;20.50;91.50;;;-146.41;100.00;57768.22;5128894;27;20035;-66
2021/05/30 09:55:21;;;;;;;7.63;1.52;;;21.30;91.70;;;-146.41;100.00;57768.22;5127733;27;20058;-66
2021/05/30 09:58:18;;;;;;;3.40;1.38;;;20.90;87.80;;;-146.41;100.00;57768.22;5108099;27;20039;-66
2021/05/30 10:01:00;;;;;;;4.43;1.10;;;21.10;86.90;;;-146.41;100.00;57768.22;5127603;27;20035;-66
2021/05/30 10:03:28;;;;;;;3.33;0.90;;;20.90;82.60;;;-146.41;100.00;57768.22;5123335;27;20046;-66
2021/05/30 10:05:55;;;;;;;2.25;0.90;;;21.20;83.00;;;-146.41;100.00;57768.22;5120050;28;20046;-65
2021/05/30 10:08:23;;;;;;;3.50;1.00;;;21.50;77.50;;;-146.41;100.00;57768.22;5106260;27;20100;-66